Time;durP1;ratioP1;P1;durP2;ratioP2;P2;SDS_P1;SDS_P2;PMS_P1;PMS_P2;Temp;Humidity;BMP_temperature;BMP_pressure;BME280_temperature;BME280_humidity;BME280_pressure;Samples;Min_cycle;Max_cycle;Signal;HPM_P1;HPM_P2
2021/01/09 00:01:49;;;;;;;9.55;3.92;;;5.20;69.80;;;;;;2587899;52;20945;-69
2021/01/09 00:04:16;;;;;;;10.93;4.47;;;5.20;69.80;;;;;;2546219;52;2298029;-68
2021/01/09 00:06:47;;;;;;;8.75;4.45;;;5.20;69.90;;;;;;2358325;53;21038;-69
2021/01/09 00:09:14;;;;;;;19.42;7.90;;;5.30;69.90;;;;;;2361352;53;20937;-68
2021/01/09 00:11:40;;;;;;;13.85;6.47;;;5.30;70.00;;;;;;2343723;53;20972;-69
2021/01/09 00:14:12;;;;;;;14.52;6.40;;;5.30;70.00;;;;;;2343681;53;21052;-68
2021/01/09 00:16:47;;;;;;;12.65;5.07;;;5.30;69.90;;;;;;2567604;52;21440;-69
2021/01/09 00:19:13;;;;;;;10.73;5.28;;;5.30;69.80;;;;;;2340308;53;20908;-69
2021/01/09 00:21:58;;;;;;;9.98;5.10;;;5.30;69.90;;;;;;2343612;53;21795;-70
2021/01/09 00:24:24;;;;;;;8.30;4.57;;;5.30;69.50;;;;;;2353173;53;21036;-70
2021/01/09 00:26:53;;;;;;;7.78;4.05;;;5.30;69.80;;;;;;2574057;52;21514;-68
2021/01/09 00:29:19;;;;;;;8.75;4.62;;;5.30;69.80;;;;;;2304325;54;21847;-68
2021/01/09 00:31:45;;;;;;;10.20;4.57;;;5.30;69.80;;;;;;2341618;53;20920;-68
2021/01/09 00:34:14;;;;;;;9.43;4.55;;;5.30;69.80;;;;;;2340407;53;20956;-69
2021/01/09 00:36:51;;;;;;;9.07;4.80;;;5.30;69.80;;;;;;2344733;53;20994;-69
2021/01/09 00:39:18;;;;;;;10.70;4.95;;;5.40;69.80;;;;;;2587110;52;21001;-69
2021/01/09 00:41:44;;;;;;;9.40;4.93;;;5.30;69.70;;;;;;2587226;52;21028;-69
2021/01/09 00:44:10;;;;;;;9.25;5.03;;;5.30;69.60;;;;;;2582855;52;21548;-68
2021/01/09 00:46:36;;;;;;;10.45;5.15;;;5.30;69.50;;;;;;2338172;53;21047;-68
2021/01/09 00:49:03;;;;;;;10.10;4.87;;;5.30;69.40;;;;;;2337280;53;21016;-70
2021/01/09 00:51:30;;;;;;;10.18;4.85;;;5.30;69.30;;;;;;2331631;53;20933;-68
2021/01/09 00:53:57;;;;;;;8.50;4.35;;;5.30;69.40;;;;;;2333494;53;20976;-70
2021/01/09 00:56:23;;;;;;;8.52;4.05;;;5.30;69.40;;;;;;2578057;52;20897;-68
2021/01/09 00:59:07;;;;;;;8.30;4.40;;;5.30;69.60;;;;;;2578134;52;20976;-69
2021/01/09 01:01:34;;;;;;;9.18;4.72;;;5.30;69.30;;;;;;2579257;52;20983;-69
2021/01/09 01:04:01;;;;;;;8.70;4.20;;;5.30;69.60;;;;;;2336893;53;21027;-68
2021/01/09 01:06:28;;;;;;;9.35;4.72;;;5.20;69.40;;;;;;2322561;53;21434;-68
2021/01/09 01:08:54;;;;;;;9.52;4.55;;;5.20;69.40;;;;;;2578879;52;20921;-69
2021/01/09 01:11:27;;;;;;;9.85;4.87;;;5.20;69.50;;;;;;2336943;53;20945;-68
2021/01/09 01:13:54;;;;;;;10.85;5.00;;;5.20;69.40;;;;;;2554967;53;21883;-69
2021/01/09 01:16:21;;;;;;;11.20;5.15;;;5.20;69.60;;;;;;2339085;53;20941;-68
2021/01/09 01:18:48;;;;;;;9.77;4.65;;;5.20;69.50;;;;;;2341522;53;21056;-68
2021/01/09 01:21:14;;;;;;;7.95;4.47;;;5.20;69.40;;;;;;2344188;53;20960;-69
2021/01/09 01:23:40;;;;;;;10.02;4.43;;;5.20;69.40;;;;;;2341925;53;20925;-69
2021/01/09 01:26:08;;;;;;;10.98;5.12;;;5.20;69.40;;;;;;2337617;53;21606;-67
2021/01/09 01:28:37;;;;;;;10.25;4.78;;;5.20;69.40;;;;;;2336576;53;20933;-68
2021/01/09 01:31:04;;;;;;;9.10;4.78;;;5.20;70.10;;;;;;2582356;52;20947;-68
2021/01/09 01:33:31;;;;;;;9.38;5.03;;;5.20;69.40;;;;;;2336113;53;20989;-68
2021/01/09 01:36:09;;;;;;;10.73;4.93;;;5.20;69.40;;;;;;2337292;53;20973;-67
2021/01/09 01:38:36;;;;;;;11.52;5.57;;;5.20;69.30;;;;;;2339337;53;20960;-68
2021/01/09 01:41:06;;;;;;;13.23;6.20;;;5.20;69.50;;;;;;2336623;53;20949;-68
2021/01/09 01:43:33;;;;;;;11.12;5.30;;;5.20;69.60;;;;;;2335611;53;20924;-68
2021/01/09 01:46:01;;;;;;;11.65;5.80;;;5.10;69.50;;;;;;2339115;53;20944;-68
2021/01/09 01:48:43;;;;;;;10.38;5.65;;;5.10;69.60;;;;;;2317142;54;21024;-69
2021/01/09 01:51:11;;;;;;;8.32;4.78;;;5.20;69.40;;;;;;2580721;52;21005;-67
2021/01/09 01:53:37;;;;;;;11.25;5.32;;;5.20;69.50;;;;;;2588763;52;21147;-68
2021/01/09 01:56:22;;;;;;;8.55;4.70;;;5.20;69.50;;;;;;2591687;52;20922;-68
2021/01/09 01:58:48;;;;;;;10.60;5.37;;;5.20;69.20;;;;;;2348869;53;20944;-68
2021/01/09 02:02:01;;;;;;;9.27;4.87;;;5.10;69.20;;;;;;2343311;53;20929;-68
2021/01/09 02:04:27;;;;;;;11.73;5.03;;;5.10;69.00;;;;;;2329783;54;20931;-68
2021/01/09 02:06:53;;;;;;;12.60;5.25;;;5.10;69.20;;;;;;2331169;53;20976;-68
2021/01/09 02:09:24;;;;;;;6.90;3.75;;;5.10;69.30;;;;;;2586785;52;20937;-69
2021/01/09 02:12:14;;;;;;;10.30;4.87;;;5.00;69.20;;;;;;2341499;53;21500;-68
2021/01/09 02:14:56;;;;;;;8.57;4.57;;;5.00;69.10;;;;;;2586160;52;20953;-69
2021/01/09 02:17:22;;;;;;;10.75;5.15;;;5.00;69.30;;;;;;2339619;53;20929;-68
2021/01/09 02:19:50;;;;;;;8.45;4.68;;;5.00;69.30;;;;;;2339155;53;21016;-68
2021/01/09 02:22:18;;;;;;;9.48;5.20;;;5.00;69.40;;;;;;2338930;53;20929;-69
2021/01/09 02:24:46;;;;;;;7.87;4.22;;;5.00;69.50;;;;;;2584512;52;20933;-69
2021/01/09 02:27:13;;;;;;;9.00;5.00;;;5.00;69.50;;;;;;2583923;52;20917;-68
2021/01/09 02:29:52;;;;;;;10.85;5.12;;;5.00;69.50;;;;;;2338612;53;21449;-68
2021/01/09 02:32:19;;;;;;;8.80;4.70;;;5.00;69.40;;;;;;2585315;52;20976;-68
2021/01/09 02:34:53;;;;;;;9.18;4.72;;;5.00;69.50;;;;;;2351722;53;21004;-68
2021/01/09 02:37:19;;;;;;;9.75;4.97;;;5.00;69.60;;;;;;2347017;53;21394;-68
2021/01/09 02:39:46;;;;;;;9.48;4.78;;;5.00;69.60;;;;;;2586128;52;21461;-68
2021/01/09 02:42:12;;;;;;;11.05;4.95;;;5.00;69.60;;;;;;2338960;53;20913;-68
2021/01/09 02:44:41;;;;;;;10.90;5.20;;;5.00;69.70;;;;;;2338937;53;20941;-68
2021/01/09 02:47:08;;;;;;;10.68;4.35;;;5.00;69.70;;;;;;2319255;54;20981;-69
2021/01/09 02:49:34;;;;;;;9.48;4.75;;;5.00;69.70;;;;;;2341185;53;21008;-68
2021/01/09 02:52:00;;;;;;;10.38;5.10;;;5.00;69.70;;;;;;2586882;52;21029;-69
2021/01/09 02:54:27;;;;;;;9.93;5.18;;;5.00;69.60;;;;;;2334683;53;22057;-68
2021/01/09 02:56:54;;;;;;;10.90;4.93;;;5.00;69.60;;;;;;2569685;52;20956;-68
2021/01/09 02:59:20;;;;;;;9.43;4.87;;;5.00;69.60;;;;;;2332827;53;20957;-68
2021/01/09 03:01:48;;;;;;;9.32;4.90;;;5.00;69.60;;;;;;2368751;53;21043;-68
2021/01/09 03:04:14;;;;;;;12.05;5.47;;;5.00;69.60;;;;;;2351946;53;20948;-68
2021/01/09 03:06:43;;;;;;;10.80;5.47;;;5.00;69.50;;;;;;2585153;52;21489;-68
2021/01/09 03:09:11;;;;;;;11.75;5.10;;;5.00;69.50;;;;;;2554938;52;21720;-69
2021/01/09 03:11:38;;;;;;;11.60;5.43;;;5.00;69.60;;;;;;2584796;52;20996;-68
2021/01/09 03:14:04;;;;;;;11.18;5.85;;;5.00;69.50;;;;;;2337898;53;20988;-69
2021/01/09 03:16:31;;;;;;;12.43;6.03;;;5.00;69.60;;;;;;2342217;53;20929;-68
2021/01/09 03:18:57;;;;;;;11.15;4.97;;;5.00;69.70;;;;;;2341986;53;21821;-68
2021/01/09 03:21:24;;;;;;;10.45;5.05;;;5.00;69.60;;;;;;2339206;53;20985;-68
2021/01/09 03:23:50;;;;;;;11.43;4.90;;;5.10;69.80;;;;;;2342751;53;21802;-68
2021/01/09 03:26:18;;;;;;;12.45;5.53;;;5.00;69.80;;;;;;2337844;53;20941;-68
2021/01/09 03:28:44;;;;;;;10.65;5.43;;;5.00;69.80;;;;;;2338415;53;21780;-68
2021/01/09 03:31:24;;;;;;;12.52;5.62;;;5.10;69.90;;;;;;2339414;53;20956;-68
2021/01/09 03:33:50;;;;;;;11.05;5.72;;;5.00;69.50;;;;;;2342139;53;21076;-69
2021/01/09 03:36:17;;;;;;;11.40;5.72;;;5.10;70.40;;;;;;2328711;53;20968;-68
2021/01/09 03:38:43;;;;;;;10.23;5.55;;;5.10;69.70;;;;;;2544898;53;21488;-68
2021/01/09 03:41:10;;;;;;;10.20;5.25;;;5.10;69.60;;;;;;2314416;53;20980;-68
2021/01/09 03:43:37;;;;;;;11.65;4.93;;;5.10;69.60;;;;;;2317750;53;20956;-69
2021/01/09 03:46:04;;;;;;;10.15;5.10;;;5.10;69.60;;;;;;2575565;53;20924;-68
2021/01/09 03:48:30;;;;;;;9.80;4.85;;;5.10;69.60;;;;;;2336472;53;20989;-68
2021/01/09 03:50:56;;;;;;;10.20;4.90;;;5.10;69.60;;;;;;2336533;53;20999;-69
2021/01/09 03:53:23;;;;;;;12.18;5.28;;;5.00;69.40;;;;;;2579787;53;21004;-68
2021/01/09 03:55:49;;;;;;;12.43;5.80;;;5.10;69.60;;;;;;2339776;53;21790;-68
2021/01/09 03:58:16;;;;;;;11.18;6.25;;;5.00;69.50;;;;;;2339931;53;20941;-68
2021/01/09 04:00:42;;;;;;;11.63;5.68;;;5.00;69.50;;;;;;2580056;53;21934;-68
2021/01/09 04:03:09;;;;;;;13.50;4.90;;;5.00;69.50;;;;;;2324855;53;21067;-68
2021/01/09 04:05:58;;;;;;;11.98;5.78;;;5.00;69.50;;;;;;2546182;53;21031;-69
2021/01/09 04:08:24;;;;;;;11.98;5.93;;;5.00;69.20;;;;;;2320346;54;20933;-68
2021/01/09 04:10:51;;;;;;;8.98;5.20;;;5.00;69.40;;;;;;2542672;53;21453;-68
2021/01/09 04:13:18;;;;;;;10.20;5.05;;;5.00;69.50;;;;;;2335022;54;21567;-68
2021/01/09 04:15:44;;;;;;;12.15;5.82;;;5.00;69.50;;;;;;2571105;53;21995;-69
2021/01/09 04:18:10;;;;;;;9.52;5.10;;;5.00;69.50;;;;;;2559709;52;20940;-68
2021/01/09 04:20:37;;;;;;;12.32;5.97;;;5.00;69.50;;;;;;2578540;53;20958;-68
2021/01/09 04:23:03;;;;;;;12.25;5.80;;;5.00;70.20;;;;;;2337843;53;21783;-68
2021/01/09 04:25:32;;;;;;;12.20;5.87;;;5.00;69.60;;;;;;2332271;53;21016;-68
2021/01/09 04:27:59;;;;;;;11.00;4.95;;;5.00;69.60;;;;;;2332971;53;20949;-68
2021/01/09 04:30:26;;;;;;;8.82;4.80;;;5.00;69.50;;;;;;2341154;53;21561;-68
2021/01/09 04:32:52;;;;;;;13.48;6.10;;;5.00;69.60;;;;;;2330112;53;21009;-68
2021/01/09 04:35:19;;;;;;;11.52;5.45;;;5.00;69.60;;;;;;2576127;53;20975;-68
2021/01/09 04:37:45;;;;;;;13.32;6.30;;;5.00;69.60;;;;;;2336407;53;21074;-68
2021/01/09 04:40:12;;;;;;;11.75;5.68;;;5.00;69.60;;;;;;2578948;53;20918;-68
2021/01/09 04:42:38;;;;;;;12.98;6.47;;;5.00;69.60;;;;;;2334373;54;20945;-68
2021/01/09 04:45:07;;;;;;;12.77;6.07;;;5.00;69.60;;;;;;2576094;53;20925;-68
2021/01/09 04:47:34;;;;;;;11.15;5.30;;;5.00;69.60;;;;;;2578771;53;21011;-68
2021/01/09 04:50:03;;;;;;;10.65;5.07;;;5.00;69.60;;;;;;2338765;53;20945;-68
2021/01/09 04:52:31;;;;;;;10.32;5.22;;;5.00;69.60;;;;;;2328123;53;20993;-68
2021/01/09 04:54:57;;;;;;;13.30;5.90;;;5.00;69.60;;;;;;2337672;53;21005;-68
2021/01/09 04:57:29;;;;;;;10.32;5.32;;;5.00;69.50;;;;;;2578217;52;21072;-68
2021/01/09 04:59:55;;;;;;;10.27;5.50;;;5.00;69.40;;;;;;2580663;53;21093;-68
2021/01/09 05:02:22;;;;;;;12.20;5.85;;;5.00;69.40;;;;;;2332642;53;20995;-69
2021/01/09 05:04:48;;;;;;;12.02;5.50;;;5.00;69.40;;;;;;2336361;53;21777;-68
2021/01/09 05:07:14;;;;;;;11.48;6.07;;;4.90;69.30;;;;;;2335890;54;21453;-68
2021/01/09 05:09:42;;;;;;;12.02;5.45;;;4.90;69.30;;;;;;2579936;53;21477;-69
2021/01/09 05:12:09;;;;;;;12.82;6.18;;;5.00;69.40;;;;;;2338958;54;21016;-69
2021/01/09 05:14:56;;;;;;;11.73;5.97;;;4.90;69.30;;;;;;2580470;52;20985;-69
2021/01/09 05:17:25;;;;;;;14.18;6.07;;;4.90;69.10;;;;;;2333681;53;20921;-68
2021/01/09 05:19:51;;;;;;;12.32;5.90;;;4.90;69.40;;;;;;2580861;53;21491;-68
2021/01/09 05:22:18;;;;;;;11.27;5.82;;;4.90;69.40;;;;;;2340849;53;20964;-69
2021/01/09 05:24:48;;;;;;;12.68;6.30;;;4.90;69.40;;;;;;2580969;53;20949;-68
2021/01/09 05:27:16;;;;;;;11.63;5.82;;;4.90;69.30;;;;;;2342942;53;21834;-68
2021/01/09 05:29:43;;;;;;;11.63;5.97;;;4.90;69.40;;;;;;2328246;53;20941;-68
2021/01/09 05:32:10;;;;;;;12.35;5.22;;;4.90;69.40;;;;;;2334629;54;20945;-68
2021/01/09 05:34:57;;;;;;;11.27;5.47;;;4.90;69.40;;;;;;2334193;54;20925;-68
2021/01/09 05:37:25;;;;;;;13.62;5.87;;;4.80;69.10;;;;;;2334194;54;21718;-68
2021/01/09 05:40:00;;;;;;;12.48;6.25;;;4.80;69.40;;;;;;2579625;53;20936;-68
2021/01/09 05:42:27;;;;;;;10.32;5.75;;;4.80;69.30;;;;;;2578741;53;20921;-68
2021/01/09 05:44:55;;;;;;;12.30;6.25;;;4.80;69.30;;;;;;2578275;53;20980;-68
2021/01/09 05:47:23;;;;;;;11.50;6.30;;;4.80;69.30;;;;;;2578910;53;20960;-68
2021/01/09 05:49:54;;;;;;;10.82;5.65;;;4.80;69.30;;;;;;2337564;53;20988;-68
2021/01/09 05:52:24;;;;;;;14.25;6.62;;;4.80;69.30;;;;;;2570198;52;20959;-68
2021/01/09 05:54:54;;;;;;;12.95;6.57;;;4.80;69.40;;;;;;2332297;53;21469;-68
2021/01/09 05:57:21;;;;;;;13.23;6.22;;;4.80;69.30;;;;;;2334455;54;21031;-68
2021/01/09 05:59:50;;;;;;;11.80;6.35;;;4.80;69.40;;;;;;2582141;53;20980;-69
2021/01/09 06:02:16;;;;;;;14.27;6.65;;;4.70;69.20;;;;;;2336657;54;21005;-70
2021/01/09 06:04:44;;;;;;;13.98;6.40;;;4.70;69.30;;;;;;2582061;53;21778;-68
2021/01/09 06:07:25;;;;;;;11.68;5.82;;;4.70;69.30;;;;;;2582080;53;20985;-70
2021/01/09 06:10:07;;;;;;;12.23;6.55;;;4.70;69.20;;;;;;2339619;53;20999;-70
2021/01/09 06:12:35;;;;;;;12.18;6.03;;;4.70;69.20;;;;;;2335654;53;20916;-70
2021/01/09 06:15:04;;;;;;;11.00;5.43;;;4.70;69.20;;;;;;2336295;54;21390;-70
2021/01/09 06:17:34;;;;;;;15.68;7.28;;;4.70;69.30;;;;;;2336386;54;21020;-69
2021/01/09 06:20:01;;;;;;;12.73;6.70;;;4.70;69.20;;;;;;2582199;53;21460;-70
2021/01/09 06:22:28;;;;;;;11.70;6.22;;;4.60;69.10;;;;;;2581410;53;21460;-70
2021/01/09 06:24:54;;;;;;;12.07;6.37;;;4.60;69.10;;;;;;2582187;53;21477;-70
2021/01/09 06:27:36;;;;;;;10.23;5.90;;;4.60;69.10;;;;;;2579190;53;21481;-70
2021/01/09 06:30:04;;;;;;;14.93;6.37;;;4.70;69.00;;;;;;2337328;54;20928;-70
2021/01/09 06:32:33;;;;;;;11.07;6.05;;;4.50;69.00;;;;;;2336067;54;21087;-70
2021/01/09 06:35:18;;;;;;;13.23;6.90;;;4.50;68.90;;;;;;2339865;53;20968;-69
2021/01/09 06:37:44;;;;;;;12.23;6.45;;;4.50;68.90;;;;;;2577559;53;20924;-70
2021/01/09 06:40:13;;;;;;;14.38;7.03;;;4.50;69.00;;;;;;2336224;53;20992;-70
2021/01/09 06:42:39;;;;;;;13.80;6.22;;;4.50;69.10;;;;;;2555312;53;21464;-70
2021/01/09 06:45:06;;;;;;;14.20;6.78;;;4.50;69.20;;;;;;2580154;53;21577;-70
2021/01/09 06:47:33;;;;;;;13.10;6.95;;;4.40;69.10;;;;;;2336503;53;21423;-70
2021/01/09 06:50:33;;;;;;;13.27;6.57;;;4.40;69.20;;;;;;2336928;54;20997;-70
2021/01/09 06:53:01;;;;;;;13.88;6.70;;;4.40;69.00;;;;;;2338583;53;20989;-70
2021/01/09 06:56:28;;;;;;;12.88;6.18;;;4.40;69.30;;;;;;2342146;53;21016;-70
2021/01/09 06:58:54;;;;;;;14.60;6.68;;;4.40;69.00;;;;;;2569204;52;21696;-70
2021/01/09 07:01:20;;;;;;;12.37;5.68;;;4.40;69.40;;;;;;2579261;53;21445;-70
2021/01/09 07:03:47;;;;;;;10.27;5.53;;;4.40;69.40;;;;;;2334288;54;20980;-70
2021/01/09 07:06:13;;;;;;;14.35;7.00;;;4.40;69.50;;;;;;2334112;54;21023;-70
2021/01/09 07:08:51;;;;;;;13.13;6.82;;;4.40;69.50;;;;;;2335813;53;20935;-70
2021/01/09 07:11:18;;;;;;;13.52;6.82;;;4.40;69.50;;;;;;2580048;53;21790;-68
2021/01/09 07:13:44;;;;;;;13.88;6.53;;;4.40;69.70;;;;;;2337940;53;20968;-69
2021/01/09 07:16:12;;;;;;;13.32;6.45;;;4.40;69.80;;;;;;2578823;53;21467;-70
2021/01/09 07:18:40;;;;;;;14.18;6.78;;;4.40;69.80;;;;;;2577569;53;21366;-70
2021/01/09 07:21:06;;;;;;;12.23;6.95;;;4.40;69.80;;;;;;2579953;53;20933;-69
2021/01/09 07:23:34;;;;;;;12.95;6.70;;;4.40;69.80;;;;;;2580079;53;20995;-70
2021/01/09 07:26:01;;;;;;;14.30;7.07;;;4.40;69.80;;;;;;2578894;53;20988;-70
2021/01/09 07:28:34;;;;;;;12.15;6.57;;;4.40;69.80;;;;;;2326313;53;21584;-69
2021/01/09 07:31:05;;;;;;;12.35;6.75;;;4.40;69.80;;;;;;2340681;54;21898;-70
2021/01/09 07:33:32;;;;;;;13.65;6.90;;;4.40;69.80;;;;;;2335370;53;20956;-70
2021/01/09 07:35:59;;;;;;;15.57;7.65;;;4.40;69.70;;;;;;2342792;53;20932;-69
2021/01/09 07:38:25;;;;;;;13.65;6.55;;;4.40;69.70;;;;;;2341402;53;21072;-70
2021/01/09 07:40:58;;;;;;;15.32;7.55;;;4.40;69.60;;;;;;2573101;52;20979;-70
2021/01/09 07:43:44;;;;;;;17.00;8.02;;;4.40;69.60;;;;;;2336815;54;20912;-70
2021/01/09 07:46:27;;;;;;;15.75;8.07;;;4.40;69.50;;;;;;2582198;53;20925;-70
2021/01/09 07:48:55;;;;;;;15.23;7.37;;;4.40;69.40;;;;;;2344644;53;21085;-70
2021/01/09 07:51:47;;;;;;;15.50;7.95;;;4.30;69.50;;;;;;2331118;54;20944;-70
2021/01/09 07:54:59;;;;;;;16.87;7.87;;;4.30;69.30;;;;;;2339160;53;20923;-70
2021/01/09 07:57:27;;;;;;;16.52;8.45;;;4.40;69.30;;;;;;2580044;53;21003;-70
2021/01/09 08:00:13;;;;;;;15.80;8.10;;;4.30;69.50;;;;;;2339429;53;21001;-70
2021/01/09 08:02:40;;;;;;;17.62;8.85;;;4.30;69.40;;;;;;2582202;53;21123;-70
2021/01/09 08:05:24;;;;;;;14.55;7.20;;;4.30;69.50;;;;;;2580463;53;20979;-70
2021/01/09 08:07:55;;;;;;;16.85;8.30;;;4.30;69.40;;;;;;2551537;53;20991;-70
2021/01/09 08:10:32;;;;;;;17.83;8.82;;;4.30;69.50;;;;;;2581978;53;20941;-70
2021/01/09 08:13:05;;;;;;;19.08;8.70;;;4.30;69.50;;;;;;2339941;53;21016;-70
2021/01/09 08:16:12;;;;;;;18.02;8.85;;;4.20;69.50;;;;;;2576052;53;21004;-70
2021/01/09 08:18:38;;;;;;;17.17;8.80;;;4.20;69.40;;;;;;2580431;53;20936;-70
2021/01/09 08:21:05;;;;;;;19.62;9.75;;;4.20;69.50;;;;;;2341433;53;20972;-70
2021/01/09 08:23:31;;;;;;;20.20;9.35;;;4.10;69.40;;;;;;2571849;52;21448;-70
2021/01/09 08:25:58;;;;;;;18.15;9.10;;;4.20;69.60;;;;;;2335731;53;21032;-70
2021/01/09 08:28:24;;;;;;;20.67;10.10;;;4.10;69.50;;;;;;2577265;53;21001;-69
2021/01/09 08:30:50;;;;;;;22.90;10.32;;;4.10;69.60;;;;;;2578140;52;20957;-69
2021/01/09 08:33:20;;;;;;;18.90;8.95;;;4.10;69.60;;;;;;2564831;52;21063;-70
2021/01/09 08:35:50;;;;;;;20.98;9.65;;;4.10;69.60;;;;;;2335046;53;21489;-69
2021/01/09 08:43:05;;;;;;;15.65;7.30;;;4.10;69.50;;;;;;2466812;55;22022;-70
2021/01/09 08:45:51;;;;;;;15.80;7.75;;;4.10;69.40;;;;;;2445966;55;2023825;-69
2021/01/09 08:48:53;;;;;;;15.52;7.05;;;4.10;69.30;;;;;;2500979;55;21052;-70
2021/01/09 08:51:19;;;;;;;16.45;7.70;;;4.00;69.20;;;;;;2258782;55;21025;-69
2021/01/09 08:53:59;;;;;;;18.52;8.10;;;4.00;69.40;;;;;;2483213;55;20941;-70
2021/01/09 08:56:29;;;;;;;16.90;8.32;;;4.00;69.50;;;;;;2257472;55;21009;-70
2021/01/09 08:59:00;;;;;;;17.05;8.55;;;4.00;69.60;;;;;;2285700;55;20947;-68
2021/01/09 09:01:48;;;;;;;16.45;8.45;;;3.90;69.60;;;;;;2257802;55;21080;-69
2021/01/09 09:04:17;;;;;;;17.33;8.10;;;3.90;69.60;;;;;;2486588;55;21020;-70
2021/01/09 09:06:44;;;;;;;19.15;8.85;;;4.00;70.10;;;;;;2506627;54;21011;-70
2021/01/09 09:09:15;;;;;;;20.40;9.48;;;4.00;70.40;;;;;;2490180;55;20996;-70
2021/01/09 09:11:41;;;;;;;17.37;8.32;;;4.00;70.70;;;;;;2485814;55;20940;-70
2021/01/09 09:14:11;;;;;;;22.15;10.05;;;4.00;70.90;;;;;;2276050;55;21444;-69
2021/01/09 09:16:38;;;;;;;21.27;10.77;;;4.10;71.10;;;;;;2495830;55;20941;-70
2021/01/09 09:19:19;;;;;;;23.50;10.90;;;4.10;71.30;;;;;;2282127;55;20992;-69
2021/01/09 09:21:46;;;;;;;19.30;9.93;;;4.10;71.30;;;;;;2504673;55;21850;-70
2021/01/09 09:24:13;;;;;;;24.50;11.05;;;4.20;71.40;;;;;;2510793;55;20935;-69
2021/01/09 09:26:40;;;;;;;24.73;11.15;;;4.20;71.30;;;;;;2489089;55;21540;-70
2021/01/09 09:29:06;;;;;;;20.55;10.38;;;4.20;71.20;;;;;;2276173;55;20976;-70
2021/01/09 09:31:42;;;;;;;20.77;9.93;;;4.30;71.10;;;;;;2272600;55;20947;-70
2021/01/09 09:34:12;;;;;;;23.40;10.85;;;4.30;71.00;;;;;;2242128;56;21005;-70
2021/01/09 09:36:40;;;;;;;19.98;9.48;;;4.30;71.10;;;;;;2260134;55;21004;-68
2021/01/09 09:39:26;;;;;;;18.75;9.90;;;4.40;71.30;;;;;;2447884;55;21062;-69
2021/01/09 09:41:57;;;;;;;21.45;10.25;;;4.40;71.30;;;;;;2232593;56;20959;-68
2021/01/09 09:44:40;;;;;;;20.45;10.65;;;4.40;71.60;;;;;;2253716;55;21016;-69
2021/01/09 09:47:11;;;;;;;22.02;10.32;;;4.50;71.70;;;;;;2246812;55;20980;-68
2021/01/09 09:49:38;;;;;;;19.62;9.82;;;4.60;72.10;;;;;;2220304;56;20991;-68
2021/01/09 09:53:08;;;;;;;18.58;9.45;;;4.60;72.30;;;;;;2451542;55;22137;-68
2021/01/09 09:55:35;;;;;;;19.85;9.75;;;4.80;72.00;;;;;;2477185;55;21979;-68
2021/01/09 09:58:17;;;;;;;19.83;9.68;;;4.80;72.70;;;;;;2266775;55;21005;-69
2021/01/09 10:00:46;;;;;;;21.55;10.60;;;4.90;72.70;;;;;;2265803;55;21534;-69
2021/01/09 10:03:13;;;;;;;19.60;11.15;;;5.00;73.00;;;;;;2478076;55;20968;-68
2021/01/09 10:05:41;;;;;;;24.55;11.38;;;5.00;72.90;;;;;;2262135;55;21036;-68
2021/01/09 10:08:11;;;;;;;20.42;10.75;;;5.10;72.90;;;;;;2220589;57;20962;-69
2021/01/09 10:10:38;;;;;;;20.55;10.73;;;5.20;72.60;;;;;;2485682;55;20996;-69
2021/01/09 10:13:07;;;;;;;20.67;10.35;;;5.20;72.50;;;;;;2279795;56;21044;-69
2021/01/09 10:15:43;;;;;;;18.52;10.00;;;5.30;72.50;;;;;;2264178;55;24333;-69
2021/01/09 10:18:10;;;;;;;21.75;11.48;;;5.30;72.50;;;;;;2458647;55;21048;-70
2021/01/09 10:20:36;;;;;;;19.95;10.32;;;5.40;72.50;;;;;;2458455;55;21014;-69
2021/01/09 10:23:03;;;;;;;19.98;10.88;;;5.40;72.50;;;;;;2237992;56;20959;-70
2021/01/09 10:25:29;;;;;;;21.17;10.52;;;5.50;72.60;;;;;;2257846;55;20965;-70
2021/01/09 10:27:55;;;;;;;18.10;9.80;;;5.50;72.70;;;;;;2268492;55;20940;-70
2021/01/09 10:30:23;;;;;;;19.35;10.52;;;5.60;72.90;;;;;;2278578;55;21130;-69
2021/01/09 10:32:49;;;;;;;18.12;10.48;;;5.60;73.00;;;;;;2279962;55;20948;-70
2021/01/09 10:35:16;;;;;;;20.52;10.63;;;5.70;73.10;;;;;;2281049;55;20951;-69
2021/01/09 10:37:42;;;;;;;22.58;11.15;;;5.80;73.00;;;;;;2485288;55;21811;-70
2021/01/09 10:40:10;;;;;;;18.95;10.57;;;5.80;72.80;;;;;;2275376;55;20934;-70
2021/01/09 10:42:36;;;;;;;18.52;9.75;;;5.90;72.70;;;;;;2492541;55;22229;-71
2021/01/09 10:45:03;;;;;;;18.12;9.55;;;5.90;72.50;;;;;;2256585;55;20977;-70
2021/01/09 10:47:30;;;;;;;15.93;8.95;;;6.00;72.20;;;;;;2268674;55;21003;-71
2021/01/09 10:49:57;;;;;;;17.33;9.13;;;6.00;72.00;;;;;;2271117;55;20969;-70
2021/01/09 10:52:23;;;;;;;18.10;9.73;;;6.00;71.90;;;;;;2510982;55;21019;-71
2021/01/09 10:54:50;;;;;;;19.40;10.18;;;6.10;72.50;;;;;;2492085;55;21445;-71
2021/01/09 10:57:17;;;;;;;18.48;10.45;;;6.10;73.60;;;;;;2274718;55;21119;-69
2021/01/09 10:59:47;;;;;;;18.60;10.57;;;6.30;75.40;;;;;;2257175;55;20933;-69
2021/01/09 11:02:13;;;;;;;17.40;10.30;;;6.50;76.70;;;;;;2279006;55;21071;-70
2021/01/09 11:04:39;;;;;;;17.20;10.00;;;6.80;78.00;;;;;;2508594;55;20947;-68
2021/01/09 11:07:06;;;;;;;17.08;9.60;;;7.10;79.20;;;;;;2269844;55;21041;-69
2021/01/09 11:09:32;;;;;;;13.93;7.87;;;7.50;79.80;;;;;;2279599;55;20976;-69
2021/01/09 11:11:59;;;;;;;16.10;9.65;;;7.80;79.70;;;;;;2276487;55;21036;-70
2021/01/09 11:14:25;;;;;;;13.20;8.40;;;8.20;79.30;;;;;;2510551;55;21735;-70
2021/01/09 11:16:59;;;;;;;15.27;10.10;;;8.50;78.60;;;;;;2256861;55;21433;-70
2021/01/09 11:19:25;;;;;;;15.25;9.13;;;8.80;78.00;;;;;;2257542;56;20989;-70
2021/01/09 11:22:00;;;;;;;14.07;8.95;;;9.00;77.70;;;;;;2497872;55;21731;-69
2021/01/09 11:24:33;;;;;;;15.82;9.65;;;9.30;77.20;;;;;;2266400;55;20936;-69
2021/01/09 11:27:02;;;;;;;14.75;8.93;;;9.50;75.80;;;;;;2267662;55;20967;-69
2021/01/09 11:29:29;;;;;;;13.55;8.77;;;9.70;75.20;;;;;;2501559;55;21044;-69
2021/01/09 11:31:56;;;;;;;13.00;8.15;;;9.80;74.20;;;;;;2504961;55;20963;-69
2021/01/09 11:34:23;;;;;;;15.27;9.05;;;9.90;73.30;;;;;;2279727;55;21011;-69
2021/01/09 11:36:52;;;;;;;13.73;8.73;;;9.90;72.50;;;;;;2248933;56;20975;-69
2021/01/09 11:39:18;;;;;;;12.23;7.57;;;9.90;71.20;;;;;;2242772;56;21095;-69
2021/01/09 11:41:46;;;;;;;12.25;7.75;;;9.80;70.40;;;;;;2237296;56;21520;-69
2021/01/09 11:44:12;;;;;;;11.48;7.37;;;9.80;70.10;;;;;;2485458;55;21055;-70
2021/01/09 11:46:39;;;;;;;13.05;7.78;;;9.70;69.80;;;;;;2260536;56;21058;-71
2021/01/09 11:49:05;;;;;;;13.32;7.75;;;9.60;70.00;;;;;;2258254;56;20972;-69
2021/01/09 11:51:33;;;;;;;12.57;7.75;;;9.60;70.30;;;;;;2483463;55;20933;-69
2021/01/09 11:54:01;;;;;;;11.30;7.55;;;9.60;70.60;;;;;;2260484;56;21056;-69
2021/01/09 11:56:29;;;;;;;12.98;7.65;;;9.60;71.00;;;;;;2487614;55;21072;-69
2021/01/09 11:58:57;;;;;;;13.68;8.98;;;9.60;71.70;;;;;;2483227;55;21959;-69
2021/01/09 12:01:33;;;;;;;11.50;7.47;;;9.60;71.90;;;;;;2262545;56;20996;-69
2021/01/09 12:04:00;;;;;;;12.13;7.60;;;9.70;72.20;;;;;;2259172;56;21469;-69
2021/01/09 12:06:26;;;;;;;10.82;6.62;;;9.80;72.40;;;;;;2259825;56;20941;-69
2021/01/09 12:08:53;;;;;;;10.80;6.25;;;10.00;71.60;;;;;;2259916;56;20909;-69
2021/01/09 12:11:20;;;;;;;11.07;6.37;;;10.00;71.40;;;;;;2260267;56;21048;-70
2021/01/09 12:13:47;;;;;;;11.00;6.57;;;10.10;70.80;;;;;;2487872;55;20972;-69
2021/01/09 12:16:13;;;;;;;12.27;7.35;;;10.10;69.80;;;;;;2260160;56;21013;-69
2021/01/09 12:18:39;;;;;;;10.43;6.37;;;10.10;68.50;;;;;;2260860;56;21422;-69
2021/01/09 12:21:06;;;;;;;9.77;6.32;;;10.10;68.10;;;;;;2261943;56;21012;-69
2021/01/09 12:23:32;;;;;;;10.50;6.28;;;10.00;67.30;;;;;;2483314;55;20933;-68
2021/01/09 12:25:59;;;;;;;9.27;6.12;;;9.90;67.90;;;;;;2262436;56;20949;-70
2021/01/09 12:28:25;;;;;;;10.68;6.40;;;9.80;68.20;;;;;;2257511;56;20921;-70
2021/01/09 12:30:52;;;;;;;9.68;6.20;;;9.80;69.20;;;;;;2486893;55;21061;-69
2021/01/09 12:33:19;;;;;;;9.98;6.15;;;9.80;69.80;;;;;;2257568;56;21021;-69
2021/01/09 12:35:46;;;;;;;10.65;5.65;;;9.80;69.90;;;;;;2487877;55;21013;-69
2021/01/09 12:38:13;;;;;;;9.00;5.72;;;9.80;69.70;;;;;;2259700;56;20965;-69
2021/01/09 12:40:39;;;;;;;10.10;6.15;;;9.80;69.40;;;;;;2488164;55;20941;-69
2021/01/09 12:43:05;;;;;;;10.43;6.22;;;9.80;69.10;;;;;;2260164;56;20965;-69
2021/01/09 12:45:35;;;;;;;10.75;6.25;;;9.80;68.60;;;;;;2255156;56;20925;-69
2021/01/09 12:48:01;;;;;;;10.95;6.40;;;9.70;67.40;;;;;;2261809;56;20957;-69
2021/01/09 12:50:31;;;;;;;10.82;6.45;;;9.60;66.90;;;;;;2459335;55;21740;-70
2021/01/09 12:52:57;;;;;;;13.65;7.20;;;9.50;66.50;;;;;;2473873;55;20930;-71
2021/01/09 12:55:24;;;;;;;9.93;5.82;;;9.30;66.10;;;;;;2251983;56;21402;-70
2021/01/09 12:57:51;;;;;;;9.32;5.32;;;9.20;65.90;;;;;;2242258;56;20960;-70
2021/01/09 13:00:19;;;;;;;8.48;5.00;;;9.00;65.90;;;;;;2247176;56;21577;-70
2021/01/09 13:02:45;;;;;;;8.77;5.30;;;8.90;66.10;;;;;;2486987;55;20961;-70
2021/01/09 13:05:12;;;;;;;9.98;5.35;;;8.80;66.30;;;;;;2262745;56;21445;-70
2021/01/09 13:07:42;;;;;;;9.80;5.85;;;8.70;66.30;;;;;;2258814;56;21021;-70